createdAt,value
2017-10-26T00:01:32.743Z,43.10
2017-10-26T00:03:59.136Z,44.60
2017-10-26T00:06:26.204Z,45.73
2017-10-26T00:08:52.826Z,35.70
2017-10-26T00:11:19.210Z,41.90
2017-10-26T00:13:45.616Z,40.17
2017-10-26T00:16:12.687Z,43.67
2017-10-26T00:18:39.085Z,42.90
2017-10-26T00:21:05.456Z,39.13
2017-10-26T00:23:31.806Z,39.83
2017-10-26T00:25:58.903Z,39.97
2017-10-26T00:28:25.240Z,35.03
2017-10-26T00:30:51.614Z,37.90
2017-10-26T00:33:17.972Z,41.80
2017-10-26T00:35:44.356Z,40.90
2017-10-26T00:38:11.439Z,38.50
2017-10-26T00:40:37.863Z,35.90
2017-10-26T00:43:04.254Z,40.97
2017-10-26T00:45:30.667Z,37.90
2017-10-26T00:47:57.230Z,42.97
2017-10-26T00:50:23.597Z,42.17
2017-10-26T00:52:50.749Z,39.87
2017-10-26T00:55:17.102Z,38.10
2017-10-26T00:57:43.477Z,34.57
2017-10-26T01:00:09.872Z,34.47
2017-10-26T01:02:36.260Z,35.27
2017-10-26T01:05:03.369Z,35.73
2017-10-26T01:07:29.715Z,32.27
2017-10-26T01:09:56.889Z,34.07
2017-10-26T01:12:23.252Z,38.07
2017-10-26T01:14:50.381Z,38.07
2017-10-26T01:17:17.512Z,42.17
2017-10-26T01:19:43.950Z,38.20
2017-10-26T01:22:10.357Z,34.60
2017-10-26T01:24:37.510Z,43.77
2017-10-26T01:27:03.870Z,42.97
2017-10-26T01:29:30.306Z,37.53
2017-10-26T01:31:57.324Z,38.90
2017-10-26T01:34:23.762Z,40.70
2017-10-26T01:36:50.129Z,37.60
2017-10-26T01:39:16.528Z,40.37
2017-10-26T01:41:42.949Z,39.20
2017-10-26T01:44:09.355Z,39.70
2017-10-26T01:46:35.743Z,39.47
2017-10-26T01:49:02.877Z,39.10
2017-10-26T01:51:29.257Z,37.97
2017-10-26T01:53:55.740Z,41.93
2017-10-26T01:56:22.201Z,34.80
2017-10-26T01:58:48.604Z,37.73
2017-10-26T02:01:15.000Z,40.37
2017-10-26T02:03:42.152Z,41.17
2017-10-26T02:06:08.524Z,39.47
2017-10-26T02:08:34.928Z,36.13
2017-10-26T02:11:01.304Z,38.23
2017-10-26T02:13:27.887Z,39.60
2017-10-26T02:15:54.862Z,38.07
2017-10-26T02:18:21.248Z,34.37
2017-10-26T02:20:47.633Z,34.40
2017-10-26T02:23:14.730Z,32.80
2017-10-26T02:25:41.132Z,36.43
2017-10-26T02:28:07.494Z,34.93
2017-10-26T02:30:46.232Z,36.23
2017-10-26T02:33:12.598Z,42.10
2017-10-26T02:35:39.764Z,41.87
2017-10-26T02:38:06.320Z,32.30
2017-10-26T02:40:32.673Z,37.77
2017-10-26T02:42:59.021Z,34.80
2017-10-26T02:45:25.389Z,39.20
2017-10-26T02:47:52.494Z,34.60
2017-10-26T02:50:18.838Z,39.60
2017-10-26T02:52:45.213Z,42.53
2017-10-26T02:55:11.538Z,41.40
2017-10-26T02:57:37.964Z,41.37
2017-10-26T03:00:04.326Z,41.57
2017-10-26T03:02:30.697Z,43.80
2017-10-26T03:04:57.074Z,39.20
2017-10-26T03:07:23.438Z,42.80
2017-10-26T03:09:53.545Z,43.70
2017-10-26T03:12:20.441Z,39.20
2017-10-26T03:14:46.825Z,37.60
2017-10-26T03:17:13.903Z,37.00
2017-10-26T03:19:40.471Z,36.00
2017-10-26T03:22:08.333Z,34.13
2017-10-26T03:24:34.686Z,35.37
2017-10-26T03:27:01.038Z,37.00
2017-10-26T03:29:27.361Z,34.03
2017-10-26T03:31:53.728Z,34.80
2017-10-26T03:34:20.145Z,28.53
2017-10-26T03:36:46.515Z,34.20
2017-10-26T03:39:12.874Z,35.00
2017-10-26T03:41:39.248Z,37.83
2017-10-26T03:44:05.641Z,34.33
2017-10-26T03:46:32.008Z,35.57
2017-10-26T03:48:59.253Z,27.93
2017-10-26T03:51:25.597Z,38.90
2017-10-26T03:53:51.970Z,36.70
2017-10-26T03:56:18.358Z,32.00
2017-10-26T03:58:45.541Z,32.30
2017-10-26T04:01:12.163Z,34.17
2017-10-26T04:03:38.581Z,37.77
2017-10-26T04:06:04.989Z,32.50
2017-10-26T04:08:31.369Z,29.30
2017-10-26T04:10:58.451Z,32.37
2017-10-26T04:13:25.050Z,32.27
2017-10-26T04:15:51.380Z,35.57
2017-10-26T04:18:17.720Z,37.03
2017-10-26T04:20:44.157Z,31.57
2017-10-26T04:23:10.565Z,33.30
2017-10-26T04:25:36.983Z,34.40
2017-10-26T04:28:03.400Z,34.80
2017-10-26T04:30:29.890Z,31.10
2017-10-26T04:32:56.313Z,32.17
2017-10-26T04:35:22.716Z,34.03
2017-10-26T04:37:49.096Z,25.13
2017-10-26T04:40:15.533Z,32.60
2017-10-26T04:42:41.949Z,30.23
2017-10-26T04:45:08.308Z,28.87
2017-10-26T04:47:34.696Z,30.50
2017-10-26T04:50:01.081Z,31.20
2017-10-26T04:52:27.456Z,30.30
2017-10-26T04:54:53.826Z,32.63
2017-10-26T04:57:20.222Z,26.93
2017-10-26T04:59:46.609Z,31.53
2017-10-26T05:02:12.945Z,28.57
2017-10-26T05:04:40.054Z,32.47
2017-10-26T05:07:06.425Z,30.83
2017-10-26T05:09:32.763Z,29.63
2017-10-26T05:11:59.140Z,25.77
2017-10-26T05:14:26.209Z,27.57
2017-10-26T05:16:53.312Z,28.20
2017-10-26T05:19:19.676Z,27.83
2017-10-26T05:21:46.012Z,31.20
2017-10-26T05:24:12.413Z,29.57
2017-10-26T05:26:38.905Z,26.73
2017-10-26T05:29:05.310Z,26.80
2017-10-26T05:31:32.369Z,29.33
2017-10-26T05:33:58.787Z,28.33
2017-10-26T05:36:25.133Z,28.90
2017-10-26T05:38:51.484Z,28.93
2017-10-26T05:41:18.601Z,26.00
2017-10-26T05:43:45.060Z,27.07
2017-10-26T05:46:11.485Z,24.10
2017-10-26T05:48:37.836Z,26.10
2017-10-26T05:51:05.005Z,26.97
2017-10-26T05:53:31.456Z,27.20
2017-10-26T05:55:57.901Z,25.53
2017-10-26T05:58:24.355Z,27.60
2017-10-26T06:00:51.566Z,25.47
2017-10-26T06:03:18.725Z,26.40
2017-10-26T06:05:45.320Z,26.30
2017-10-26T06:08:11.924Z,22.57
2017-10-26T06:10:39.075Z,23.87
2017-10-26T06:13:06.254Z,25.97
2017-10-26T06:15:33.508Z,26.20
2017-10-26T06:17:59.960Z,24.83
2017-10-26T06:20:26.406Z,25.77
2017-10-26T06:22:54.631Z,22.97
2017-10-26T06:25:21.309Z,26.23
2017-10-26T06:27:47.746Z,23.63
2017-10-26T06:30:14.203Z,24.30
2017-10-26T06:32:40.609Z,23.00
2017-10-26T06:35:08.812Z,24.63
2017-10-26T06:37:35.254Z,23.30
2017-10-26T06:40:02.821Z,22.43
2017-10-26T06:42:29.223Z,23.17
2017-10-26T06:44:56.374Z,20.90
2017-10-26T06:47:22.953Z,23.70
2017-10-26T06:49:49.407Z,24.37
2017-10-26T06:52:15.893Z,22.50
2017-10-26T06:54:42.318Z,22.40
2017-10-26T06:57:08.746Z,22.53
2017-10-26T06:59:35.920Z,19.20
2017-10-26T07:02:02.380Z,20.53
2017-10-26T07:04:30.497Z,21.13
2017-10-26T07:06:57.044Z,18.00
2017-10-26T07:09:23.797Z,19.10
2017-10-26T07:11:53.105Z,20.20
2017-10-26T07:14:19.484Z,19.80
2017-10-26T07:16:45.929Z,21.27
2017-10-26T07:19:13.072Z,19.33
2017-10-26T07:21:39.433Z,18.13
2017-10-26T07:24:05.861Z,19.67
2017-10-26T07:26:32.270Z,20.90
2017-10-26T07:28:58.697Z,20.17
2017-10-26T07:31:28.250Z,20.83
2017-10-26T07:33:54.662Z,19.60
2017-10-26T07:36:21.075Z,19.90
2017-10-26T07:38:50.681Z,18.57
2017-10-26T07:41:17.893Z,18.83
2017-10-26T07:43:44.289Z,18.67
2017-10-26T07:46:10.652Z,18.60
2017-10-26T07:48:37.777Z,19.30
2017-10-26T07:51:04.929Z,20.03
2017-10-26T07:53:31.327Z,17.17
2017-10-26T07:55:58.413Z,18.27
2017-10-26T07:58:24.786Z,17.37
2017-10-26T08:00:51.184Z,16.53
2017-10-26T08:03:18.257Z,16.60
2017-10-26T08:05:44.602Z,15.67
2017-10-26T08:08:11.720Z,14.67
2017-10-26T08:10:38.149Z,12.97
2017-10-26T08:13:04.535Z,14.87
2017-10-26T08:15:31.656Z,14.73
2017-10-26T08:17:58.004Z,12.77
2017-10-26T08:20:25.175Z,11.97
2017-10-26T08:22:51.526Z,12.67
2017-10-26T08:25:17.973Z,13.50
2017-10-26T08:27:44.304Z,11.83
2017-10-26T08:30:11.455Z,14.20
2017-10-26T08:32:37.832Z,12.10
2017-10-26T08:35:04.537Z,12.60
2017-10-26T08:37:31.685Z,11.53
2017-10-26T08:39:58.027Z,12.93
2017-10-26T08:42:24.409Z,11.57
2017-10-26T08:44:50.736Z,13.10
2017-10-26T08:47:17.109Z,12.77
2017-10-26T08:49:43.496Z,11.70
2017-10-26T08:52:10.073Z,11.93
2017-10-26T08:54:36.414Z,11.20
2017-10-26T08:57:02.756Z,11.87
2017-10-26T08:59:29.113Z,10.53
2017-10-26T09:01:55.497Z,11.23
2017-10-26T09:04:21.884Z,10.13
2017-10-26T09:06:48.245Z,10.40
2017-10-26T09:09:15.380Z,10.93
2017-10-26T09:11:41.721Z,9.70
2017-10-26T09:14:08.132Z,10.87
2017-10-26T09:16:34.513Z,10.23
2017-10-26T09:19:00.922Z,10.33
2017-10-26T09:21:27.332Z,10.20
2017-10-26T09:23:53.902Z,10.57
2017-10-26T09:26:21.972Z,10.03
2017-10-26T09:28:49.081Z,11.80
2017-10-26T09:31:18.150Z,9.40
2017-10-26T09:33:45.426Z,11.10
2017-10-26T09:36:12.525Z,11.80
2017-10-26T09:38:38.942Z,10.20
2017-10-26T09:41:05.462Z,10.03
2017-10-26T09:43:33.264Z,10.40
2017-10-26T09:46:01.866Z,11.50
2017-10-26T09:48:28.360Z,10.50
2017-10-26T09:50:54.992Z,10.40
2017-10-26T09:53:22.114Z,9.17
2017-10-26T09:55:48.516Z,10.40
2017-10-26T09:58:15.037Z,11.20
2017-10-26T10:00:41.505Z,10.27
2017-10-26T10:03:08.687Z,10.70
2017-10-26T10:05:35.182Z,9.80
2017-10-26T10:08:02.010Z,10.67
2017-10-26T10:10:28.662Z,10.60
2017-10-26T10:12:55.136Z,10.20
2017-10-26T10:15:21.624Z,10.27
2017-10-26T10:17:48.161Z,8.87
2017-10-26T10:20:14.601Z,11.53
2017-10-26T10:22:41.818Z,8.53
2017-10-26T10:25:10.675Z,10.30
2017-10-26T10:27:37.557Z,10.77
2017-10-26T10:30:04.048Z,8.67
2017-10-26T10:32:30.548Z,9.40
2017-10-26T10:34:57.119Z,10.83
2017-10-26T10:37:23.583Z,9.97
2017-10-26T10:39:50.074Z,8.67
2017-10-26T10:42:16.549Z,9.83
2017-10-26T10:44:42.993Z,10.60
2017-10-26T10:47:09.452Z,9.10
2017-10-26T10:49:35.876Z,8.70
2017-10-26T10:52:02.318Z,9.23
2017-10-26T10:54:28.741Z,9.47
2017-10-26T10:56:55.189Z,8.37
2017-10-26T10:59:28.166Z,8.90
2017-10-26T11:01:56.234Z,7.50
2017-10-26T11:04:23.203Z,8.10
2017-10-26T11:06:51.525Z,7.23
2017-10-26T11:09:18.951Z,7.07
2017-10-26T11:11:45.942Z,6.10
2017-10-26T11:14:13.202Z,6.13
2017-10-26T11:16:41.056Z,5.90
2017-10-26T11:19:08.469Z,6.03
2017-10-26T11:21:35.148Z,5.97
2017-10-26T11:24:02.637Z,5.73
2017-10-26T11:26:32.040Z,5.33
2017-10-26T11:28:59.821Z,5.20
2017-10-26T11:31:28.478Z,5.17
2017-10-26T11:33:55.525Z,5.50
2017-10-26T11:36:23.305Z,4.67
2017-10-26T11:38:52.935Z,5.93
2017-10-26T11:41:20.802Z,5.23
2017-10-26T11:43:49.105Z,5.07
2017-10-26T11:46:16.827Z,5.33
2017-10-26T11:48:43.451Z,4.73
2017-10-26T11:51:09.897Z,5.17
2017-10-26T11:53:38.377Z,5.97
2017-10-26T11:56:04.868Z,4.07
2017-10-26T11:58:31.565Z,4.60
2017-10-26T12:00:58.791Z,5.00
2017-10-26T12:03:26.031Z,4.47
2017-10-26T12:05:52.454Z,4.87
2017-10-26T12:08:19.066Z,4.97
2017-10-26T12:10:45.554Z,4.10
2017-10-26T12:13:12.773Z,5.07
2017-10-26T12:15:39.255Z,4.50
2017-10-26T12:18:05.688Z,4.57
2017-10-26T12:20:32.197Z,4.97
2017-10-26T12:23:03.620Z,5.03
2017-10-26T12:25:30.523Z,5.27
2017-10-26T12:27:57.000Z,5.10
2017-10-26T12:30:23.492Z,5.87
2017-10-26T12:32:52.916Z,5.53
2017-10-26T12:35:19.344Z,4.83
2017-10-26T12:37:46.008Z,5.27
2017-10-26T12:40:12.707Z,5.03
2017-10-26T12:42:39.225Z,5.23
2017-10-26T12:45:06.209Z,5.23
2017-10-26T12:47:35.272Z,5.70
2017-10-26T12:50:02.435Z,5.90
2017-10-26T12:52:29.137Z,6.50
2017-10-26T12:54:56.369Z,5.03
2017-10-26T12:57:22.900Z,5.20
2017-10-26T12:59:49.345Z,5.90
2017-10-26T13:02:15.820Z,5.73
2017-10-26T13:04:42.280Z,5.60
2017-10-26T13:07:10.496Z,5.97
2017-10-26T13:09:38.746Z,5.60
2017-10-26T13:12:06.438Z,7.03
2017-10-26T13:14:35.214Z,6.63
2017-10-26T13:17:02.842Z,5.17
2017-10-26T13:19:31.184Z,5.23
2017-10-26T13:21:57.803Z,5.53
2017-10-26T13:24:25.070Z,5.97
2017-10-26T13:26:51.531Z,7.27
2017-10-26T13:29:18.717Z,7.27
2017-10-26T13:31:45.142Z,6.80
2017-10-26T13:34:12.321Z,6.13
2017-10-26T13:36:39.528Z,6.90
2017-10-26T13:39:05.956Z,6.33
2017-10-26T13:41:32.373Z,6.27
2017-10-26T13:43:58.884Z,5.87
2017-10-26T13:46:26.597Z,5.87
2017-10-26T13:49:00.736Z,7.30
2017-10-26T13:51:31.167Z,5.73
2017-10-26T13:53:58.365Z,6.60
2017-10-26T13:56:27.817Z,6.97
2017-10-26T13:58:54.824Z,6.70
2017-10-26T14:01:21.236Z,7.80
2017-10-26T14:03:48.268Z,7.67
2017-10-26T14:06:16.715Z,7.67
2017-10-26T14:08:48.217Z,9.03
2017-10-26T14:11:15.400Z,9.70
2017-10-26T14:13:45.355Z,9.10
2017-10-26T14:16:13.323Z,10.43
2017-10-26T14:18:40.491Z,9.20
2017-10-26T14:21:07.634Z,9.63
2017-10-26T14:23:34.044Z,8.73
2017-10-26T14:26:00.441Z,9.23
2017-10-26T14:28:26.842Z,8.77
2017-10-26T14:30:53.258Z,10.43
2017-10-26T14:33:19.728Z,9.80
2017-10-26T14:35:46.077Z,9.73
2017-10-26T14:38:12.499Z,9.00
2017-10-26T14:40:38.943Z,10.60
2017-10-26T14:43:05.468Z,9.90
2017-10-26T14:45:31.951Z,8.20
2017-10-26T14:47:58.406Z,8.00
2017-10-26T14:50:24.878Z,7.27
2017-10-26T14:52:52.018Z,7.77
2017-10-26T14:55:19.198Z,6.87
2017-10-26T14:57:45.588Z,8.23
2017-10-26T15:00:12.049Z,7.30
2017-10-26T15:02:38.574Z,7.53
2017-10-26T15:05:05.006Z,7.50
2017-10-26T15:07:32.125Z,8.47
2017-10-26T15:09:58.645Z,7.50
2017-10-26T15:12:25.078Z,8.70
2017-10-26T15:14:52.594Z,9.50
2017-10-26T15:17:19.142Z,8.93
2017-10-26T15:19:45.627Z,9.83
2017-10-26T15:22:12.061Z,9.37
2017-10-26T15:24:38.476Z,9.90
2017-10-26T15:27:04.925Z,9.47
2017-10-26T15:29:31.311Z,12.17
2017-10-26T15:31:57.786Z,12.33
2017-10-26T15:34:24.281Z,13.70
2017-10-26T15:36:52.750Z,16.13
2017-10-26T15:39:21.193Z,15.57
2017-10-26T15:41:47.821Z,17.93
2017-10-26T15:44:14.173Z,17.03
2017-10-26T15:46:40.616Z,18.80
2017-10-26T15:49:07.725Z,19.40
2017-10-26T15:51:34.088Z,22.80
2017-10-26T15:54:00.522Z,21.13
2017-10-26T15:56:26.901Z,24.30
2017-10-26T15:58:53.308Z,24.33
2017-10-26T16:01:19.724Z,23.60
2017-10-26T16:03:47.065Z,25.07
2017-10-26T16:06:14.260Z,24.87
2017-10-26T16:08:41.353Z,25.20
2017-10-26T16:11:07.685Z,25.70
2017-10-26T16:13:34.128Z,26.50
2017-10-26T16:16:00.558Z,23.97
2017-10-26T16:18:27.017Z,23.67
2017-10-26T16:20:54.152Z,29.47
2017-10-26T16:23:22.501Z,26.40
2017-10-26T16:25:49.675Z,24.87
2017-10-26T16:28:16.111Z,26.20
2017-10-26T16:30:42.571Z,29.20
2017-10-26T16:33:09.018Z,27.57
2017-10-26T16:35:35.503Z,26.67
2017-10-26T16:38:01.897Z,24.50
2017-10-26T16:40:28.287Z,25.60
2017-10-26T16:42:54.627Z,27.93
2017-10-26T16:45:21.149Z,29.90
2017-10-26T16:47:47.517Z,26.90
2017-10-26T16:50:13.906Z,25.90
2017-10-26T16:52:41.072Z,25.80
2017-10-26T16:55:08.190Z,26.87
2017-10-26T16:57:34.516Z,29.60
2017-10-26T17:00:01.119Z,27.47
2017-10-26T17:02:27.476Z,30.70
2017-10-26T17:04:53.837Z,26.93
2017-10-26T17:07:20.967Z,30.80
2017-10-26T17:09:47.297Z,31.10
2017-10-26T17:12:13.668Z,31.87
2017-10-26T17:14:40.004Z,32.40
2017-10-26T17:17:06.365Z,32.43
2017-10-26T17:19:32.773Z,32.10
2017-10-26T17:22:00.625Z,29.43
2017-10-26T17:24:26.985Z,30.07
2017-10-26T17:26:54.209Z,29.30
2017-10-26T17:29:20.600Z,31.13
2017-10-26T17:31:46.969Z,23.03
2017-10-26T17:34:14.118Z,23.63
2017-10-26T17:36:40.514Z,22.10
2017-10-26T17:39:06.882Z,17.50
2017-10-26T17:41:33.277Z,15.20
2017-10-26T17:44:00.363Z,28.33
2017-10-26T17:46:26.721Z,22.20
2017-10-26T17:48:53.112Z,20.57
2017-10-26T17:51:20.268Z,14.70
2017-10-26T17:53:47.373Z,17.47
2017-10-26T17:56:13.701Z,15.57
2017-10-26T17:58:40.111Z,15.13
2017-10-26T18:01:06.446Z,13.17
2017-10-26T18:03:33.583Z,14.73
2017-10-26T18:05:59.923Z,14.50
2017-10-26T18:08:26.289Z,14.53
2017-10-26T18:10:52.609Z,13.60
2017-10-26T18:13:18.916Z,15.63
2017-10-26T18:15:46.001Z,16.60
2017-10-26T18:18:12.337Z,15.33
2017-10-26T18:20:38.765Z,17.67
2017-10-26T18:23:05.118Z,15.10
2017-10-26T18:25:31.461Z,17.43
2017-10-26T18:27:57.788Z,17.30
2017-10-26T18:30:24.908Z,18.40
2017-10-26T18:32:51.982Z,20.20
2017-10-26T18:35:19.083Z,18.97
2017-10-26T18:37:45.413Z,20.20
2017-10-26T18:40:11.804Z,22.10
2017-10-26T18:42:38.141Z,20.27
2017-10-26T18:45:05.265Z,29.93
2017-10-26T18:47:31.617Z,25.40
2017-10-26T18:49:57.929Z,28.37
2017-10-26T18:52:25.037Z,23.40
2017-10-26T18:54:51.389Z,29.60
2017-10-26T18:57:17.761Z,28.07
2017-10-26T18:59:44.846Z,23.70
2017-10-26T19:02:11.475Z,29.80
2017-10-26T19:04:37.840Z,33.17
2017-10-26T19:07:04.262Z,42.03
2017-10-26T19:09:30.624Z,36.30
2017-10-26T19:11:56.977Z,30.70
2017-10-26T19:14:23.321Z,37.37
2017-10-26T19:16:49.661Z,39.97
2017-10-26T19:19:16.066Z,44.70
2017-10-26T19:21:43.182Z,38.67
2017-10-26T19:24:09.542Z,42.60
2017-10-26T19:26:35.925Z,41.07
2017-10-26T19:29:03.029Z,44.77
2017-10-26T19:31:29.409Z,46.23
2017-10-26T19:33:55.836Z,43.57
2017-10-26T19:36:22.200Z,42.40
2017-10-26T19:38:48.569Z,42.93
2017-10-26T19:41:15.669Z,40.90
2017-10-26T19:43:42.008Z,43.53
2017-10-26T19:46:08.369Z,41.30
2017-10-26T19:48:36.222Z,40.87
2017-10-26T19:51:02.682Z,41.33
2017-10-26T19:53:29.068Z,40.40
2017-10-26T19:55:56.187Z,41.10
2017-10-26T19:58:22.538Z,42.53
2017-10-26T20:00:48.905Z,39.63
2017-10-26T20:03:15.253Z,36.40
2017-10-26T20:05:41.620Z,40.97
2017-10-26T20:08:08.030Z,43.63
2017-10-26T20:10:35.889Z,42.63
2017-10-26T20:13:02.273Z,41.00
2017-10-26T20:15:28.616Z,38.50
2017-10-26T20:17:55.016Z,41.20
2017-10-26T20:20:21.382Z,42.43
2017-10-26T20:22:47.736Z,42.97
2017-10-26T20:25:15.561Z,38.03
2017-10-26T20:27:41.932Z,41.43
2017-10-26T20:30:08.285Z,41.27
2017-10-26T20:32:34.641Z,39.33
2017-10-26T20:35:01.021Z,42.70
2017-10-26T20:37:28.110Z,38.97
2017-10-26T20:39:54.476Z,37.70
2017-10-26T20:42:21.629Z,36.70
2017-10-26T20:44:47.980Z,41.80
2017-10-26T20:47:14.561Z,41.47
2017-10-26T20:49:47.898Z,37.30
2017-10-26T20:52:20.369Z,36.43
2017-10-26T20:54:52.872Z,32.60
2017-10-26T21:00:25.172Z,32.40
2017-10-26T21:02:57.814Z,32.33
2017-10-26T21:05:30.938Z,29.30
2017-10-26T21:07:59.908Z,29.80
2017-10-26T21:10:32.445Z,32.20
2017-10-26T21:16:00.748Z,33.60
2017-10-26T21:18:27.902Z,35.10
2017-10-26T21:20:55.009Z,31.60
2017-10-26T21:23:21.364Z,32.03
2017-10-26T21:25:47.737Z,34.13
2017-10-26T21:28:14.097Z,35.80
2017-10-26T21:30:40.482Z,36.93
2017-10-26T21:33:06.845Z,38.17
2017-10-26T21:35:33.249Z,34.53
2017-10-26T21:37:59.605Z,33.07
2017-10-26T21:40:25.990Z,33.13
2017-10-26T21:42:52.360Z,35.37
2017-10-26T21:45:18.756Z,31.73
2017-10-26T21:47:45.120Z,28.80
2017-10-26T21:50:11.574Z,29.03
2017-10-26T21:52:38.725Z,28.97
2017-10-26T21:55:05.121Z,26.90
2017-10-26T21:57:31.512Z,25.93
2017-10-26T21:59:57.857Z,27.80
2017-10-26T22:02:24.520Z,27.80
2017-10-26T22:04:51.641Z,25.60
2017-10-26T22:07:18.022Z,23.30
2017-10-26T22:09:44.348Z,21.20
2017-10-26T22:12:10.723Z,26.80
2017-10-26T22:14:37.060Z,23.80
2017-10-26T22:17:03.461Z,25.40
2017-10-26T22:19:29.834Z,24.00
2017-10-26T22:21:56.215Z,23.30
2017-10-26T22:24:23.301Z,28.40
2017-10-26T22:26:49.857Z,27.67
2017-10-26T22:29:16.202Z,28.93
2017-10-26T22:31:42.597Z,29.60
2017-10-26T22:34:08.998Z,27.60
2017-10-26T22:36:35.316Z,27.60
2017-10-26T22:39:01.713Z,28.60
2017-10-26T22:41:28.820Z,29.80
2017-10-26T22:43:55.909Z,30.83
2017-10-26T22:46:22.290Z,31.30
2017-10-26T22:48:48.720Z,30.97
2017-10-26T22:51:15.882Z,29.13
2017-10-26T22:53:42.277Z,34.80
2017-10-26T22:56:08.634Z,33.77
2017-10-26T22:58:35.048Z,35.10
2017-10-26T23:01:02.122Z,38.10
2017-10-26T23:03:28.531Z,39.40
2017-10-26T23:05:54.904Z,41.27
2017-10-26T23:08:21.281Z,40.50
2017-10-26T23:10:47.644Z,35.50
2017-10-26T23:13:13.992Z,34.73
2017-10-26T23:15:40.353Z,39.00
2017-10-26T23:18:07.432Z,36.97
2017-10-26T23:20:33.785Z,36.30
2017-10-26T23:23:00.154Z,39.77
2017-10-26T23:25:26.513Z,39.37
2017-10-26T23:27:52.913Z,40.67
2017-10-26T23:30:19.551Z,34.37
2017-10-26T23:32:46.621Z,37.90
2017-10-26T23:35:13.011Z,35.50
2017-10-26T23:37:40.141Z,34.93
2017-10-26T23:40:06.673Z,36.50
2017-10-26T23:42:33.011Z,30.43
2017-10-26T23:44:59.343Z,33.17
2017-10-26T23:47:26.445Z,32.43
2017-10-26T23:49:52.834Z,33.50
2017-10-26T23:52:20.150Z,33.10
2017-10-26T23:54:46.491Z,33.10
2017-10-26T23:57:12.885Z,30.20
2017-10-26T23:59:39.236Z,30.10
